sensor_id;sensor_type;location;lat;lon;timestamp;P1;durP1;ratioP1;P2;durP2;ratioP2
2840;SDS011;53423;49.224;12.074;2022-07-24T00:01:34;12.48;;;9.35;;
2840;SDS011;53423;49.224;12.074;2022-07-24T00:04:03;14.20;;;9.32;;
2840;SDS011;53423;49.224;12.074;2022-07-24T00:06:31;12.40;;;8.68;;
2840;SDS011;53423;49.224;12.074;2022-07-24T00:08:59;12.73;;;8.57;;
2840;SDS011;53423;49.224;12.074;2022-07-24T00:11:28;12.35;;;8.90;;
2840;SDS011;53423;49.224;12.074;2022-07-24T00:13:56;12.48;;;9.13;;
2840;SDS011;53423;49.224;12.074;2022-07-24T00:16:25;12.40;;;9.27;;
2840;SDS011;53423;49.224;12.074;2022-07-24T00:18:54;12.68;;;9.57;;
2840;SDS011;53423;49.224;12.074;2022-07-24T00:21:22;12.10;;;9.17;;
2840;SDS011;53423;49.224;12.074;2022-07-24T00:23:50;14.27;;;9.90;;
2840;SDS011;53423;49.224;12.074;2022-07-24T00:26:18;15.40;;;10.98;;
2840;SDS011;53423;49.224;12.074;2022-07-24T00:28:46;13.38;;;9.20;;
2840;SDS011;53423;49.224;12.074;2022-07-24T00:31:16;13.13;;;9.50;;
2840;SDS011;53423;49.224;12.074;2022-07-24T00:33:45;12.30;;;9.53;;
2840;SDS011;53423;49.224;12.074;2022-07-24T00:36:16;12.85;;;9.02;;
2840;SDS011;53423;49.224;12.074;2022-07-24T00:38:44;12.35;;;9.10;;
2840;SDS011;53423;49.224;12.074;2022-07-24T00:41:12;12.88;;;9.45;;
2840;SDS011;53423;49.224;12.074;2022-07-24T00:46:28;13.70;;;9.23;;
2840;SDS011;53423;49.224;12.074;2022-07-24T00:48:57;12.73;;;9.10;;
2840;SDS011;53423;49.224;12.074;2022-07-24T00:51:26;14.85;;;10.30;;
2840;SDS011;53423;49.224;12.074;2022-07-24T00:53:55;12.57;;;8.85;;
2840;SDS011;53423;49.224;12.074;2022-07-24T00:56:23;13.32;;;9.25;;
2840;SDS011;53423;49.224;12.074;2022-07-24T00:58:52;13.60;;;9.60;;
2840;SDS011;53423;49.224;12.074;2022-07-24T01:01:20;14.23;;;10.63;;
2840;SDS011;53423;49.224;12.074;2022-07-24T01:03:48;12.07;;;8.82;;
2840;SDS011;53423;49.224;12.074;2022-07-24T01:06:16;13.32;;;9.40;;
2840;SDS011;53423;49.224;12.074;2022-07-24T01:08:46;13.95;;;10.00;;
2840;SDS011;53423;49.224;12.074;2022-07-24T01:11:14;14.77;;;9.37;;
2840;SDS011;53423;49.224;12.074;2022-07-24T01:13:42;13.50;;;9.70;;
2840;SDS011;53423;49.224;12.074;2022-07-24T01:16:11;16.02;;;10.02;;
2840;SDS011;53423;49.224;12.074;2022-07-24T01:18:39;12.43;;;9.63;;
2840;SDS011;53423;49.224;12.074;2022-07-24T01:21:08;14.60;;;9.60;;
2840;SDS011;53423;49.224;12.074;2022-07-24T01:23:36;14.13;;;9.50;;
2840;SDS011;53423;49.224;12.074;2022-07-24T01:26:05;13.55;;;9.45;;
2840;SDS011;53423;49.224;12.074;2022-07-24T01:28:34;13.30;;;9.55;;
2840;SDS011;53423;49.224;12.074;2022-07-24T01:31:03;13.02;;;9.43;;
2840;SDS011;53423;49.224;12.074;2022-07-24T01:33:31;13.05;;;9.20;;
2840;SDS011;53423;49.224;12.074;2022-07-24T01:35:59;12.70;;;9.30;;
2840;SDS011;53423;49.224;12.074;2022-07-24T01:38:29;11.90;;;8.77;;
2840;SDS011;53423;49.224;12.074;2022-07-24T01:40:57;13.18;;;9.00;;
2840;SDS011;53423;49.224;12.074;2022-07-24T01:43:25;14.98;;;9.85;;
2840;SDS011;53423;49.224;12.074;2022-07-24T01:45:53;12.82;;;9.38;;
2840;SDS011;53423;49.224;12.074;2022-07-24T01:48:21;14.27;;;9.53;;
2840;SDS011;53423;49.224;12.074;2022-07-24T01:50:49;13.32;;;9.88;;
2840;SDS011;53423;49.224;12.074;2022-07-24T01:53:17;13.73;;;9.52;;
2840;SDS011;53423;49.224;12.074;2022-07-24T01:55:50;13.82;;;9.88;;
2840;SDS011;53423;49.224;12.074;2022-07-24T01:58:18;14.43;;;9.35;;
2840;SDS011;53423;49.224;12.074;2022-07-24T02:00:48;12.67;;;9.20;;
2840;SDS011;53423;49.224;12.074;2022-07-24T02:03:17;14.77;;;9.38;;
2840;SDS011;53423;49.224;12.074;2022-07-24T02:05:46;14.25;;;10.27;;
2840;SDS011;53423;49.224;12.074;2022-07-24T02:08:14;12.80;;;9.50;;
2840;SDS011;53423;49.224;12.074;2022-07-24T02:10:42;12.40;;;8.68;;
2840;SDS011;53423;49.224;12.074;2022-07-24T02:13:11;14.43;;;9.27;;
2840;SDS011;53423;49.224;12.074;2022-07-24T02:15:39;13.38;;;9.80;;
2840;SDS011;53423;49.224;12.074;2022-07-24T02:18:07;13.60;;;9.48;;
2840;SDS011;53423;49.224;12.074;2022-07-24T02:20:36;13.30;;;9.77;;
2840;SDS011;53423;49.224;12.074;2022-07-24T02:23:04;12.93;;;9.80;;
2840;SDS011;53423;49.224;12.074;2022-07-24T02:25:32;13.53;;;9.73;;
2840;SDS011;53423;49.224;12.074;2022-07-24T02:28:00;14.88;;;9.65;;
2840;SDS011;53423;49.224;12.074;2022-07-24T02:30:30;17.10;;;10.60;;
2840;SDS011;53423;49.224;12.074;2022-07-24T02:32:58;14.00;;;10.20;;
2840;SDS011;53423;49.224;12.074;2022-07-24T02:35:29;14.57;;;9.65;;
2840;SDS011;53423;49.224;12.074;2022-07-24T02:37:57;14.57;;;9.67;;
2840;SDS011;53423;49.224;12.074;2022-07-24T02:40:25;14.60;;;10.60;;
2840;SDS011;53423;49.224;12.074;2022-07-24T02:42:53;14.35;;;9.93;;
2840;SDS011;53423;49.224;12.074;2022-07-24T02:45:21;14.73;;;10.20;;
2840;SDS011;53423;49.224;12.074;2022-07-24T02:47:51;12.32;;;9.52;;
2840;SDS011;53423;49.224;12.074;2022-07-24T02:50:21;14.13;;;10.00;;
2840;SDS011;53423;49.224;12.074;2022-07-24T02:52:50;13.80;;;10.23;;
2840;SDS011;53423;49.224;12.074;2022-07-24T02:55:20;13.70;;;9.52;;
2840;SDS011;53423;49.224;12.074;2022-07-24T02:57:48;13.05;;;9.25;;
2840;SDS011;53423;49.224;12.074;2022-07-24T03:00:16;13.98;;;9.75;;
2840;SDS011;53423;49.224;12.074;2022-07-24T03:02:45;14.67;;;9.83;;
2840;SDS011;53423;49.224;12.074;2022-07-24T03:05:15;13.48;;;10.05;;
2840;SDS011;53423;49.224;12.074;2022-07-24T03:07:43;13.18;;;9.60;;
2840;SDS011;53423;49.224;12.074;2022-07-24T03:10:13;13.13;;;9.48;;
2840;SDS011;53423;49.224;12.074;2022-07-24T03:12:42;13.18;;;9.38;;
2840;SDS011;53423;49.224;12.074;2022-07-24T03:15:11;12.53;;;9.40;;
2840;SDS011;53423;49.224;12.074;2022-07-24T03:17:47;13.00;;;9.50;;
2840;SDS011;53423;49.224;12.074;2022-07-24T03:20:17;15.32;;;9.77;;
2840;SDS011;53423;49.224;12.074;2022-07-24T03:22:45;14.80;;;10.10;;
2840;SDS011;53423;49.224;12.074;2022-07-24T03:25:15;13.90;;;9.70;;
2840;SDS011;53423;49.224;12.074;2022-07-24T03:27:44;13.13;;;10.13;;
2840;SDS011;53423;49.224;12.074;2022-07-24T03:30:12;13.50;;;9.68;;
2840;SDS011;53423;49.224;12.074;2022-07-24T03:32:41;15.57;;;10.20;;
2840;SDS011;53423;49.224;12.074;2022-07-24T03:35:09;12.65;;;9.68;;
2840;SDS011;53423;49.224;12.074;2022-07-24T03:37:39;13.43;;;9.95;;
2840;SDS011;53423;49.224;12.074;2022-07-24T03:40:07;14.07;;;10.63;;
2840;SDS011;53423;49.224;12.074;2022-07-24T03:42:36;13.35;;;9.73;;
2840;SDS011;53423;49.224;12.074;2022-07-24T03:45:05;14.05;;;9.93;;
2840;SDS011;53423;49.224;12.074;2022-07-24T03:47:34;13.07;;;9.65;;
2840;SDS011;53423;49.224;12.074;2022-07-24T03:50:02;13.95;;;9.65;;
2840;SDS011;53423;49.224;12.074;2022-07-24T03:52:31;14.17;;;9.80;;
2840;SDS011;53423;49.224;12.074;2022-07-24T03:55:03;16.13;;;10.20;;
2840;SDS011;53423;49.224;12.074;2022-07-24T03:57:31;14.63;;;10.02;;
2840;SDS011;53423;49.224;12.074;2022-07-24T03:59:59;14.05;;;9.82;;
2840;SDS011;53423;49.224;12.074;2022-07-24T04:02:27;12.20;;;9.10;;
2840;SDS011;53423;49.224;12.074;2022-07-24T04:04:55;12.07;;;9.20;;
2840;SDS011;53423;49.224;12.074;2022-07-24T04:07:23;14.30;;;10.25;;
2840;SDS011;53423;49.224;12.074;2022-07-24T04:09:51;14.10;;;9.60;;
2840;SDS011;53423;49.224;12.074;2022-07-24T04:12:21;13.63;;;9.82;;
2840;SDS011;53423;49.224;12.074;2022-07-24T04:14:49;14.45;;;9.80;;
2840;SDS011;53423;49.224;12.074;2022-07-24T04:17:17;14.60;;;9.80;;
2840;SDS011;53423;49.224;12.074;2022-07-24T04:19:45;15.32;;;10.13;;
2840;SDS011;53423;49.224;12.074;2022-07-24T04:22:13;15.60;;;10.40;;
2840;SDS011;53423;49.224;12.074;2022-07-24T04:24:41;13.80;;;9.82;;
2840;SDS011;53423;49.224;12.074;2022-07-24T04:27:09;15.18;;;10.15;;
2840;SDS011;53423;49.224;12.074;2022-07-24T04:29:38;13.53;;;10.30;;
2840;SDS011;53423;49.224;12.074;2022-07-24T04:32:06;12.73;;;9.98;;
2840;SDS011;53423;49.224;12.074;2022-07-24T04:34:35;15.10;;;10.07;;
2840;SDS011;53423;49.224;12.074;2022-07-24T04:37:03;15.30;;;10.60;;
2840;SDS011;53423;49.224;12.074;2022-07-24T04:39:31;13.82;;;9.55;;
2840;SDS011;53423;49.224;12.074;2022-07-24T04:41:59;13.77;;;10.30;;
2840;SDS011;53423;49.224;12.074;2022-07-24T04:44:27;14.60;;;10.75;;
2840;SDS011;53423;49.224;12.074;2022-07-24T04:46:57;15.48;;;10.93;;
2840;SDS011;53423;49.224;12.074;2022-07-24T04:49:25;16.67;;;11.85;;
2840;SDS011;53423;49.224;12.074;2022-07-24T04:51:53;14.20;;;11.20;;
2840;SDS011;53423;49.224;12.074;2022-07-24T04:54:21;14.60;;;10.87;;
2840;SDS011;53423;49.224;12.074;2022-07-24T04:56:50;14.52;;;11.00;;
2840;SDS011;53423;49.224;12.074;2022-07-24T04:59:18;14.75;;;11.52;;
2840;SDS011;53423;49.224;12.074;2022-07-24T05:01:46;14.43;;;10.95;;
2840;SDS011;53423;49.224;12.074;2022-07-24T05:04:16;17.98;;;14.02;;
2840;SDS011;53423;49.224;12.074;2022-07-24T05:06:44;16.33;;;12.23;;
2840;SDS011;53423;49.224;12.074;2022-07-24T05:09:13;19.00;;;13.30;;
2840;SDS011;53423;49.224;12.074;2022-07-24T05:11:41;14.23;;;11.07;;
2840;SDS011;53423;49.224;12.074;2022-07-24T05:14:09;18.58;;;13.10;;
2840;SDS011;53423;49.224;12.074;2022-07-24T05:16:37;15.48;;;12.63;;
2840;SDS011;53423;49.224;12.074;2022-07-24T05:19:07;14.90;;;11.20;;
2840;SDS011;53423;49.224;12.074;2022-07-24T05:21:36;15.00;;;11.75;;
2840;SDS011;53423;49.224;12.074;2022-07-24T05:24:04;15.82;;;11.68;;
2840;SDS011;53423;49.224;12.074;2022-07-24T05:26:33;15.20;;;11.73;;
2840;SDS011;53423;49.224;12.074;2022-07-24T05:29:01;14.95;;;11.75;;
2840;SDS011;53423;49.224;12.074;2022-07-24T05:31:33;16.30;;;12.57;;
2840;SDS011;53423;49.224;12.074;2022-07-24T05:34:06;13.80;;;10.98;;
2840;SDS011;53423;49.224;12.074;2022-07-24T05:36:36;16.90;;;11.20;;
2840;SDS011;53423;49.224;12.074;2022-07-24T05:39:04;14.88;;;12.10;;
2840;SDS011;53423;49.224;12.074;2022-07-24T05:41:33;16.25;;;12.63;;
2840;SDS011;53423;49.224;12.074;2022-07-24T05:44:02;14.13;;;11.40;;
2840;SDS011;53423;49.224;12.074;2022-07-24T05:46:30;15.52;;;11.27;;
2840;SDS011;53423;49.224;12.074;2022-07-24T05:48:58;16.77;;;11.32;;
2840;SDS011;53423;49.224;12.074;2022-07-24T05:51:27;14.75;;;11.30;;
2840;SDS011;53423;49.224;12.074;2022-07-24T05:53:57;15.98;;;12.18;;
2840;SDS011;53423;49.224;12.074;2022-07-24T05:56:25;12.87;;;10.07;;
2840;SDS011;53423;49.224;12.074;2022-07-24T05:58:53;15.95;;;12.52;;
2840;SDS011;53423;49.224;12.074;2022-07-24T06:01:21;16.35;;;12.05;;
2840;SDS011;53423;49.224;12.074;2022-07-24T06:03:49;16.52;;;11.57;;
2840;SDS011;53423;49.224;12.074;2022-07-24T06:06:17;14.40;;;10.88;;
2840;SDS011;53423;49.224;12.074;2022-07-24T06:08:45;13.83;;;10.87;;
2840;SDS011;53423;49.224;12.074;2022-07-24T06:11:15;13.05;;;10.00;;
2840;SDS011;53423;49.224;12.074;2022-07-24T06:13:44;12.93;;;10.18;;
2840;SDS011;53423;49.224;12.074;2022-07-24T06:16:12;13.93;;;10.50;;
2840;SDS011;53423;49.224;12.074;2022-07-24T06:18:40;14.70;;;11.23;;
2840;SDS011;53423;49.224;12.074;2022-07-24T06:21:08;14.30;;;11.27;;
2840;SDS011;53423;49.224;12.074;2022-07-24T06:23:36;13.90;;;10.57;;
2840;SDS011;53423;49.224;12.074;2022-07-24T06:26:04;13.52;;;10.70;;
2840;SDS011;53423;49.224;12.074;2022-07-24T06:28:34;13.18;;;9.75;;
2840;SDS011;53423;49.224;12.074;2022-07-24T06:31:02;14.50;;;10.43;;
2840;SDS011;53423;49.224;12.074;2022-07-24T06:33:30;12.97;;;9.80;;
2840;SDS011;53423;49.224;12.074;2022-07-24T06:35:59;12.02;;;9.57;;
2840;SDS011;53423;49.224;12.074;2022-07-24T06:38:27;12.25;;;9.10;;
2840;SDS011;53423;49.224;12.074;2022-07-24T06:40:55;12.88;;;9.85;;
2840;SDS011;53423;49.224;12.074;2022-07-24T06:43:23;11.98;;;9.60;;
2840;SDS011;53423;49.224;12.074;2022-07-24T06:45:52;12.47;;;9.60;;
2840;SDS011;53423;49.224;12.074;2022-07-24T06:48:21;12.82;;;9.70;;
2840;SDS011;53423;49.224;12.074;2022-07-24T06:50:49;12.73;;;10.50;;
2840;SDS011;53423;49.224;12.074;2022-07-24T06:53:17;10.95;;;8.75;;
2840;SDS011;53423;49.224;12.074;2022-07-24T06:55:45;12.88;;;9.60;;
2840;SDS011;53423;49.224;12.074;2022-07-24T06:58:14;11.87;;;9.20;;
2840;SDS011;53423;49.224;12.074;2022-07-24T07:00:42;12.57;;;9.27;;
2840;SDS011;53423;49.224;12.074;2022-07-24T07:03:11;11.77;;;9.50;;
2840;SDS011;53423;49.224;12.074;2022-07-24T07:05:39;11.50;;;9.20;;
2840;SDS011;53423;49.224;12.074;2022-07-24T07:08:07;12.18;;;8.80;;
2840;SDS011;53423;49.224;12.074;2022-07-24T07:10:35;11.70;;;8.30;;
2840;SDS011;53423;49.224;12.074;2022-07-24T07:13:03;11.73;;;9.50;;
2840;SDS011;53423;49.224;12.074;2022-07-24T07:15:31;11.18;;;9.43;;
2840;SDS011;53423;49.224;12.074;2022-07-24T07:17:59;10.80;;;8.90;;
2840;SDS011;53423;49.224;12.074;2022-07-24T07:20:29;11.60;;;8.50;;
2840;SDS011;53423;49.224;12.074;2022-07-24T07:22:57;10.83;;;8.87;;
2840;SDS011;53423;49.224;12.074;2022-07-24T07:25:25;10.43;;;8.43;;
2840;SDS011;53423;49.224;12.074;2022-07-24T07:27:53;12.77;;;9.45;;
2840;SDS011;53423;49.224;12.074;2022-07-24T07:30:21;11.32;;;8.32;;
2840;SDS011;53423;49.224;12.074;2022-07-24T07:32:49;13.70;;;8.25;;
2840;SDS011;53423;49.224;12.074;2022-07-24T07:35:18;10.00;;;7.90;;
2840;SDS011;53423;49.224;12.074;2022-07-24T07:37:54;10.55;;;8.13;;
2840;SDS011;53423;49.224;12.074;2022-07-24T07:40:24;9.50;;;7.70;;
2840;SDS011;53423;49.224;12.074;2022-07-24T07:42:52;10.73;;;8.18;;
2840;SDS011;53423;49.224;12.074;2022-07-24T07:45:20;10.55;;;8.43;;
2840;SDS011;53423;49.224;12.074;2022-07-24T07:47:55;9.77;;;7.87;;
2840;SDS011;53423;49.224;12.074;2022-07-24T07:50:24;10.70;;;8.25;;
2840;SDS011;53423;49.224;12.074;2022-07-24T07:52:52;10.13;;;7.82;;
2840;SDS011;53423;49.224;12.074;2022-07-24T07:55:22;10.95;;;8.90;;
2840;SDS011;53423;49.224;12.074;2022-07-24T07:57:50;11.10;;;8.45;;
2840;SDS011;53423;49.224;12.074;2022-07-24T08:00:34;9.60;;;7.40;;
2840;SDS011;53423;49.224;12.074;2022-07-24T08:03:02;12.65;;;8.38;;
2840;SDS011;53423;49.224;12.074;2022-07-24T08:05:30;9.18;;;7.15;;
2840;SDS011;53423;49.224;12.074;2022-07-24T08:08:00;9.20;;;7.68;;
2840;SDS011;53423;49.224;12.074;2022-07-24T08:10:29;9.82;;;7.93;;
2840;SDS011;53423;49.224;12.074;2022-07-24T08:12:57;9.90;;;7.60;;
2840;SDS011;53423;49.224;12.074;2022-07-24T08:15:25;10.85;;;8.15;;
2840;SDS011;53423;49.224;12.074;2022-07-24T08:17:54;10.43;;;7.63;;
2840;SDS011;53423;49.224;12.074;2022-07-24T08:20:24;8.63;;;6.80;;
2840;SDS011;53423;49.224;12.074;2022-07-24T08:22:53;10.55;;;7.65;;
2840;SDS011;53423;49.224;12.074;2022-07-24T08:25:25;8.53;;;6.93;;
2840;SDS011;53423;49.224;12.074;2022-07-24T08:27:53;8.27;;;6.78;;
2840;SDS011;53423;49.224;12.074;2022-07-24T08:30:21;13.45;;;7.70;;
2840;SDS011;53423;49.224;12.074;2022-07-24T08:32:51;9.52;;;6.63;;
2840;SDS011;53423;49.224;12.074;2022-07-24T08:35:19;8.95;;;7.00;;
2840;SDS011;53423;49.224;12.074;2022-07-24T08:37:57;12.33;;;7.47;;
2840;SDS011;53423;49.224;12.074;2022-07-24T08:40:26;9.90;;;6.82;;
2840;SDS011;53423;49.224;12.074;2022-07-24T08:43:00;9.50;;;7.30;;
2840;SDS011;53423;49.224;12.074;2022-07-24T08:45:28;8.82;;;6.45;;
2840;SDS011;53423;49.224;12.074;2022-07-24T08:48:01;8.23;;;6.78;;
2840;SDS011;53423;49.224;12.074;2022-07-24T08:50:30;10.77;;;7.87;;
2840;SDS011;53423;49.224;12.074;2022-07-24T08:52:59;8.77;;;6.65;;
2840;SDS011;53423;49.224;12.074;2022-07-24T08:55:29;9.23;;;6.75;;
2840;SDS011;53423;49.224;12.074;2022-07-24T08:57:58;10.15;;;6.50;;
2840;SDS011;53423;49.224;12.074;2022-07-24T09:00:28;8.60;;;6.97;;
2840;SDS011;53423;49.224;12.074;2022-07-24T09:02:57;7.67;;;6.00;;
2840;SDS011;53423;49.224;12.074;2022-07-24T09:05:26;8.40;;;6.32;;
2840;SDS011;53423;49.224;12.074;2022-07-24T09:08:08;7.55;;;5.50;;
2840;SDS011;53423;49.224;12.074;2022-07-24T09:10:38;7.13;;;5.28;;
2840;SDS011;53423;49.224;12.074;2022-07-24T09:13:13;7.65;;;5.28;;
2840;SDS011;53423;49.224;12.074;2022-07-24T09:15:43;7.17;;;4.67;;
2840;SDS011;53423;49.224;12.074;2022-07-24T09:20:58;10.10;;;5.50;;
2840;SDS011;53423;49.224;12.074;2022-07-24T09:23:38;8.07;;;5.47;;
2840;SDS011;53423;49.224;12.074;2022-07-24T09:26:08;9.75;;;5.85;;
2840;SDS011;53423;49.224;12.074;2022-07-24T09:28:46;8.13;;;5.47;;
2840;SDS011;53423;49.224;12.074;2022-07-24T09:31:18;8.52;;;5.60;;
2840;SDS011;53423;49.224;12.074;2022-07-24T09:33:48;8.75;;;5.72;;
2840;SDS011;53423;49.224;12.074;2022-07-24T09:36:16;7.07;;;5.25;;
2840;SDS011;53423;49.224;12.074;2022-07-24T09:38:48;7.43;;;5.65;;
2840;SDS011;53423;49.224;12.074;2022-07-24T09:41:22;7.53;;;5.30;;
2840;SDS011;53423;49.224;12.074;2022-07-24T09:43:58;7.25;;;5.30;;
2840;SDS011;53423;49.224;12.074;2022-07-24T09:46:27;8.18;;;5.32;;
2840;SDS011;53423;49.224;12.074;2022-07-24T09:48:57;7.50;;;5.30;;
2840;SDS011;53423;49.224;12.074;2022-07-24T09:51:27;7.35;;;5.45;;
2840;SDS011;53423;49.224;12.074;2022-07-24T09:53:57;7.67;;;5.10;;
2840;SDS011;53423;49.224;12.074;2022-07-24T09:56:28;7.95;;;5.13;;
2840;SDS011;53423;49.224;12.074;2022-07-24T09:58:57;8.57;;;5.38;;
2840;SDS011;53423;49.224;12.074;2022-07-24T10:01:27;7.72;;;4.90;;
2840;SDS011;53423;49.224;12.074;2022-07-24T10:03:56;7.13;;;4.72;;
2840;SDS011;53423;49.224;12.074;2022-07-24T10:06:25;6.80;;;4.50;;
2840;SDS011;53423;49.224;12.074;2022-07-24T10:08:54;7.35;;;5.20;;
2840;SDS011;53423;49.224;12.074;2022-07-24T10:11:23;6.53;;;4.72;;
2840;SDS011;53423;49.224;12.074;2022-07-24T10:13:53;7.40;;;4.72;;
2840;SDS011;53423;49.224;12.074;2022-07-24T10:16:30;8.48;;;5.65;;
2840;SDS011;53423;49.224;12.074;2022-07-24T10:18:59;8.87;;;5.23;;
2840;SDS011;53423;49.224;12.074;2022-07-24T10:21:30;8.63;;;5.47;;
2840;SDS011;53423;49.224;12.074;2022-07-24T10:27:00;9.13;;;5.25;;
2840;SDS011;53423;49.224;12.074;2022-07-24T10:29:33;9.13;;;5.07;;
2840;SDS011;53423;49.224;12.074;2022-07-24T10:32:02;8.20;;;5.80;;
2840;SDS011;53423;49.224;12.074;2022-07-24T10:34:33;7.60;;;5.10;;
2840;SDS011;53423;49.224;12.074;2022-07-24T10:37:10;8.80;;;5.50;;
2840;SDS011;53423;49.224;12.074;2022-07-24T10:39:54;8.63;;;5.65;;
2840;SDS011;53423;49.224;12.074;2022-07-24T10:42:30;8.40;;;4.90;;
2840;SDS011;53423;49.224;12.074;2022-07-24T10:45:16;7.10;;;4.87;;
2840;SDS011;53423;49.224;12.074;2022-07-24T10:47:45;8.32;;;5.15;;
2840;SDS011;53423;49.224;12.074;2022-07-24T10:50:13;9.55;;;5.75;;
2840;SDS011;53423;49.224;12.074;2022-07-24T10:52:42;8.95;;;5.63;;
2840;SDS011;53423;49.224;12.074;2022-07-24T10:55:21;7.38;;;5.32;;
2840;SDS011;53423;49.224;12.074;2022-07-24T10:58:02;10.27;;;6.07;;
2840;SDS011;53423;49.224;12.074;2022-07-24T11:00:40;8.13;;;5.72;;
2840;SDS011;53423;49.224;12.074;2022-07-24T11:03:19;8.20;;;5.25;;
2840;SDS011;53423;49.224;12.074;2022-07-24T11:06:02;7.90;;;5.20;;
2840;SDS011;53423;49.224;12.074;2022-07-24T11:08:31;8.27;;;5.93;;
2840;SDS011;53423;49.224;12.074;2022-07-24T11:13:52;8.35;;;5.85;;
2840;SDS011;53423;49.224;12.074;2022-07-24T11:16:26;8.00;;;5.35;;
2840;SDS011;53423;49.224;12.074;2022-07-24T11:22:05;7.57;;;5.78;;
2840;SDS011;53423;49.224;12.074;2022-07-24T11:24:35;7.37;;;5.33;;
2840;SDS011;53423;49.224;12.074;2022-07-24T11:27:13;9.52;;;5.88;;
2840;SDS011;53423;49.224;12.074;2022-07-24T11:29:44;8.57;;;5.75;;
2840;SDS011;53423;49.224;12.074;2022-07-24T11:32:14;8.30;;;5.50;;
2840;SDS011;53423;49.224;12.074;2022-07-24T11:34:45;8.40;;;5.65;;
2840;SDS011;53423;49.224;12.074;2022-07-24T11:37:16;7.37;;;5.47;;
2840;SDS011;53423;49.224;12.074;2022-07-24T11:39:45;8.35;;;5.93;;
2840;SDS011;53423;49.224;12.074;2022-07-24T11:42:14;7.72;;;5.32;;
2840;SDS011;53423;49.224;12.074;2022-07-24T11:44:44;7.95;;;5.80;;
2840;SDS011;53423;49.224;12.074;2022-07-24T11:47:15;7.70;;;5.22;;
2840;SDS011;53423;49.224;12.074;2022-07-24T11:49:45;10.10;;;5.83;;
2840;SDS011;53423;49.224;12.074;2022-07-24T11:52:16;8.18;;;5.65;;
2840;SDS011;53423;49.224;12.074;2022-07-24T11:54:45;8.85;;;5.97;;
2840;SDS011;53423;49.224;12.074;2022-07-24T11:57:16;9.70;;;5.60;;
2840;SDS011;53423;49.224;12.074;2022-07-24T12:00:09;8.48;;;5.85;;
2840;SDS011;53423;49.224;12.074;2022-07-24T12:02:43;10.47;;;7.03;;
2840;SDS011;53423;49.224;12.074;2022-07-24T12:05:12;7.97;;;5.55;;
2840;SDS011;53423;49.224;12.074;2022-07-24T12:07:50;8.27;;;5.60;;
2840;SDS011;53423;49.224;12.074;2022-07-24T12:10:18;8.18;;;5.75;;
2840;SDS011;53423;49.224;12.074;2022-07-24T12:12:48;7.35;;;5.43;;
2840;SDS011;53423;49.224;12.074;2022-07-24T12:15:17;7.80;;;5.47;;
2840;SDS011;53423;49.224;12.074;2022-07-24T12:17:57;7.47;;;5.30;;
2840;SDS011;53423;49.224;12.074;2022-07-24T12:20:27;8.15;;;5.78;;
2840;SDS011;53423;49.224;12.074;2022-07-24T12:22:57;7.75;;;5.68;;
2840;SDS011;53423;49.224;12.074;2022-07-24T12:25:27;8.00;;;5.88;;
2840;SDS011;53423;49.224;12.074;2022-07-24T12:28:03;7.95;;;5.40;;
2840;SDS011;53423;49.224;12.074;2022-07-24T12:30:33;7.43;;;5.47;;
2840;SDS011;53423;49.224;12.074;2022-07-24T12:33:05;8.93;;;5.82;;
2840;SDS011;53423;49.224;12.074;2022-07-24T12:35:34;7.53;;;5.47;;
2840;SDS011;53423;49.224;12.074;2022-07-24T12:38:25;8.20;;;5.90;;
2840;SDS011;53423;49.224;12.074;2022-07-24T12:41:01;8.82;;;5.50;;
2840;SDS011;53423;49.224;12.074;2022-07-24T12:43:33;8.33;;;5.77;;
2840;SDS011;53423;49.224;12.074;2022-07-24T12:46:13;7.65;;;5.22;;
2840;SDS011;53423;49.224;12.074;2022-07-24T12:48:56;8.75;;;5.47;;
2840;SDS011;53423;49.224;12.074;2022-07-24T12:51:25;8.05;;;5.55;;
2840;SDS011;53423;49.224;12.074;2022-07-24T12:53:54;8.98;;;6.20;;
2840;SDS011;53423;49.224;12.074;2022-07-24T12:56:23;9.07;;;5.60;;
2840;SDS011;53423;49.224;12.074;2022-07-24T12:58:52;8.25;;;6.10;;
2840;SDS011;53423;49.224;12.074;2022-07-24T13:01:22;8.25;;;5.57;;
2840;SDS011;53423;49.224;12.074;2022-07-24T13:04:00;7.72;;;5.40;;
2840;SDS011;53423;49.224;12.074;2022-07-24T13:06:38;8.25;;;6.10;;
2840;SDS011;53423;49.224;12.074;2022-07-24T13:09:08;7.87;;;5.73;;
2840;SDS011;53423;49.224;12.074;2022-07-24T13:11:37;8.38;;;5.60;;
2840;SDS011;53423;49.224;12.074;2022-07-24T13:14:06;9.77;;;6.10;;
2840;SDS011;53423;49.224;12.074;2022-07-24T13:16:37;8.65;;;5.75;;
2840;SDS011;53423;49.224;12.074;2022-07-24T13:19:08;8.82;;;5.78;;
2840;SDS011;53423;49.224;12.074;2022-07-24T13:21:37;10.20;;;5.83;;
2840;SDS011;53423;49.224;12.074;2022-07-24T13:24:06;7.85;;;5.55;;
2840;SDS011;53423;49.224;12.074;2022-07-24T13:26:35;7.63;;;5.72;;
2840;SDS011;53423;49.224;12.074;2022-07-24T13:29:05;8.23;;;5.50;;
2840;SDS011;53423;49.224;12.074;2022-07-24T13:31:33;8.13;;;5.78;;
2840;SDS011;53423;49.224;12.074;2022-07-24T13:34:02;8.10;;;6.00;;
2840;SDS011;53423;49.224;12.074;2022-07-24T13:36:33;7.90;;;5.22;;
2840;SDS011;53423;49.224;12.074;2022-07-24T13:39:02;7.78;;;6.00;;
2840;SDS011;53423;49.224;12.074;2022-07-24T13:41:31;9.65;;;5.88;;
2840;SDS011;53423;49.224;12.074;2022-07-24T13:43:59;7.63;;;5.43;;
2840;SDS011;53423;49.224;12.074;2022-07-24T13:46:28;7.37;;;5.50;;
2840;SDS011;53423;49.224;12.074;2022-07-24T13:48:57;7.82;;;5.70;;
2840;SDS011;53423;49.224;12.074;2022-07-24T13:51:27;7.22;;;5.55;;
2840;SDS011;53423;49.224;12.074;2022-07-24T13:53:57;8.68;;;5.70;;
2840;SDS011;53423;49.224;12.074;2022-07-24T13:56:26;8.50;;;5.97;;
2840;SDS011;53423;49.224;12.074;2022-07-24T13:58:54;8.43;;;5.73;;
2840;SDS011;53423;49.224;12.074;2022-07-24T14:01:22;8.90;;;5.47;;
2840;SDS011;53423;49.224;12.074;2022-07-24T14:03:59;8.48;;;5.80;;
2840;SDS011;53423;49.224;12.074;2022-07-24T14:06:48;7.32;;;4.80;;
2840;SDS011;53423;49.224;12.074;2022-07-24T14:09:19;8.40;;;5.45;;
2840;SDS011;53423;49.224;12.074;2022-07-24T14:11:47;10.37;;;6.33;;
2840;SDS011;53423;49.224;12.074;2022-07-24T14:14:15;8.65;;;6.13;;
2840;SDS011;53423;49.224;12.074;2022-07-24T14:16:43;9.70;;;5.90;;
2840;SDS011;53423;49.224;12.074;2022-07-24T14:19:12;7.35;;;5.40;;
2840;SDS011;53423;49.224;12.074;2022-07-24T14:21:40;8.07;;;5.97;;
2840;SDS011;53423;49.224;12.074;2022-07-24T14:24:13;7.63;;;5.40;;
2840;SDS011;53423;49.224;12.074;2022-07-24T14:26:44;8.77;;;6.13;;
2840;SDS011;53423;49.224;12.074;2022-07-24T14:29:13;8.05;;;5.43;;
2840;SDS011;53423;49.224;12.074;2022-07-24T14:31:41;8.38;;;5.57;;
2840;SDS011;53423;49.224;12.074;2022-07-24T14:34:09;9.65;;;6.20;;
2840;SDS011;53423;49.224;12.074;2022-07-24T14:36:37;9.30;;;4.93;;
2840;SDS011;53423;49.224;12.074;2022-07-24T14:39:05;8.07;;;5.30;;
2840;SDS011;53423;49.224;12.074;2022-07-24T14:41:34;8.25;;;5.57;;
2840;SDS011;53423;49.224;12.074;2022-07-24T14:44:04;7.75;;;5.97;;
2840;SDS011;53423;49.224;12.074;2022-07-24T14:46:36;9.25;;;5.70;;
2840;SDS011;53423;49.224;12.074;2022-07-24T14:49:04;7.60;;;5.57;;
2840;SDS011;53423;49.224;12.074;2022-07-24T14:51:33;8.70;;;6.20;;
2840;SDS011;53423;49.224;12.074;2022-07-24T14:54:01;7.22;;;5.32;;
2840;SDS011;53423;49.224;12.074;2022-07-24T14:56:29;7.20;;;5.53;;
2840;SDS011;53423;49.224;12.074;2022-07-24T14:58:58;8.43;;;5.20;;
2840;SDS011;53423;49.224;12.074;2022-07-24T15:01:27;8.03;;;5.60;;
2840;SDS011;53423;49.224;12.074;2022-07-24T15:04:03;8.27;;;5.50;;
2840;SDS011;53423;49.224;12.074;2022-07-24T15:06:32;9.23;;;5.70;;
2840;SDS011;53423;49.224;12.074;2022-07-24T15:09:00;7.00;;;5.40;;